»·PEaware :: N822JH KSBP-KSBP

N822JH :: KSBP-KSBP

FLIGHT INFORMATION

Flight Status: Arrived
Operator: Privately registered:
United States
More flights under this callsign
Pilot: Aleksandr Z. (18023)
Aircraft: PIPER PA-24 COMMANCHE
(PA24)
More flights by this aircraft type
Origin: KSBP San Luis Co Regl
United States
Destination: KSBP San Luis Co Regl
United States
More flights between these airports :: More routes between these airports
Route:
File this flight plan on PilotEdge
Remarks: A2A Paper24 Comanche250. I speak and hear English badly. Please, do not speak fast.
Altitude:
(Current/Filed)
1,200ft
Speed:
(Current/Filed)
110kts
Departed: 08-Feb-19 08:50 AM
Arrived: 08-Feb-19 09:07 AM
Distance/Time
Traveled:
0nm/0:17
Distance/Time
To Go:
Arrived

Flight Plot

Page will automatically refresh every two minutes.


Map Options




Map Legend


Flown Route
Filed Route
Departure Airport
Arrival Airport
Navaid (VOR, NDB)
Fix

Horizontal Profiles

Position Reports

Time Latitude Longitude Heading Altitude Ground
Speed
08-Feb-19 08:22 35.238258 -120.645789 269 215ft 0kts
08-Feb-19 08:23 35.238258 -120.645789 269 215ft 0kts
08-Feb-19 08:24 35.238258 -120.645789 269 215ft 0kts
08-Feb-19 08:25 35.238258 -120.645789 269 215ft 0kts
08-Feb-19 08:26 35.238258 -120.645794 268 215ft 0kts
08-Feb-19 08:27 35.238258 -120.645799 268 215ft 0kts
08-Feb-19 08:28 35.238358 -120.645638 93 215ft 10kts
08-Feb-19 08:29 35.237727 -120.643026 57 215ft 0kts
08-Feb-19 08:30 35.237787 -120.642615 93 215ft 8kts
08-Feb-19 08:30 35.237077 -120.638697 125 215ft 17kts
08-Feb-19 08:32 35.233248 -120.632619 210 215ft 0kts
08-Feb-19 08:33 35.233246 -120.632621 210 215ft 0kts
08-Feb-19 08:33 35.233244 -120.632622 210 215ft 0kts
08-Feb-19 08:34 35.233242 -120.632624 210 215ft 0kts
08-Feb-19 08:36 35.233239 -120.632626 210 215ft 0kts
08-Feb-19 08:36 35.233236 -120.632628 210 215ft 0kts
08-Feb-19 08:39 35.238258 -120.645792 269 215ft 0kts
08-Feb-19 08:40 35.238258 -120.645797 269 215ft 0kts
08-Feb-19 08:41 35.238258 -120.645801 269 215ft 0kts
08-Feb-19 08:42 35.238260 -120.645835 279 215ft 1kts
08-Feb-19 08:43 35.237692 -120.643091 64 215ft 0kts
08-Feb-19 08:44 35.237694 -120.643086 64 215ft 0kts
08-Feb-19 08:45 35.237265 -120.639005 124 215ft 15kts
08-Feb-19 08:46 35.233959 -120.633190 124 215ft 23kts
08-Feb-19 08:47 35.233289 -120.632592 216 215ft 0kts
08-Feb-19 08:48 35.233280 -120.632600 216 215ft 1kts
08-Feb-19 08:49 35.241573 -120.648325 307 683ft 109kts
08-Feb-19 08:50 35.242484 -120.674235 209 1241ft 103kts
08-Feb-19 08:51 35.222709 -120.662047 118 1248ft 101kts
08-Feb-19 08:52 35.210177 -120.630502 119 1240ft 99kts
08-Feb-19 08:53 35.225829 -120.620394 315 890ft 92kts
08-Feb-19 08:54 35.238562 -120.643362 304 256ft 95kts
08-Feb-19 08:55 35.246458 -120.672945 213 1119ft 105kts
08-Feb-19 08:56 35.224338 -120.668426 124 1253ft 105kts
08-Feb-19 08:57 35.207793 -120.636835 119 1220ft 109kts
08-Feb-19 08:58 35.207117 -120.609354 34 896ft 91kts
08-Feb-19 08:59 35.225934 -120.621043 305 465ft 88kts
08-Feb-19 09:00 35.238223 -120.642854 304 287ft 100kts
08-Feb-19 09:01 35.248892 -120.670060 218 1157ft 90kts
08-Feb-19 09:02 35.226325 -120.669006 124 1321ft 106kts
08-Feb-19 09:03 35.210044 -120.639129 121 1141ft 100kts
08-Feb-19 09:04 35.209958 -120.614619 34 863ft 85kts
08-Feb-19 09:05 35.227510 -120.623822 303 485ft 80kts
08-Feb-19 09:06 35.236986 -120.640530 299 215ft 11kts
08-Feb-19 09:07 35.237727 -120.643012 239 215ft 1kts
08-Feb-19 09:08 35.237722 -120.643022 239 215ft 0kts
08-Feb-19 09:09 35.237752 -120.644253 306 215ft 14kts
08-Feb-19 09:10 35.238259 -120.645749 269 215ft 0kts
08-Feb-19 09:11 35.238259 -120.645750 269 215ft 0kts
08-Feb-19 09:12 35.238259 -120.645750 269 215ft 0kts
08-Feb-19 09:17 35.238259 -120.645750 269 215ft 0kts
08-Feb-19 09:18 35.238259 -120.645750 269 215ft 0kts
08-Feb-19 09:19 35.238259 -120.645750 269 215ft 0kts
08-Feb-19 09:20 35.238259 -120.645750 269 215ft 0kts

Navigation Log

Ident Type
Flight plan parsing failed, navigation log unavailable